Main page
Satellite images 10-day forecastsClimateMarine weather Cyclones Lightning AirportsFAQ Newsletter About
Weather : Europe Africa North America South America Asia Australia-Oceania Others
Languages Contact

Liège, Belgium

Liège Airport

latitude: 50-39N, longitude: 005-27E, elevation: 186 m


METAR: EBLG 240220Z 03003KT 8000 FEW032 08/07 Q1020 TEMPO 5000
TAF: EBLG 232300Z 2400/2506 02004KT 9999 SCT025 PROB30 TEMPO 2402/2405 2500 BR

Time: 04:52 (02:52 UTC)

Current weather observation

The report was made 32 minutes ago, at 02:20 UTC
Wind 3 kt from the North/Northeast
Temperature 8°C
Humidity 93%
Pressure 1020 hPa
Visibility: 8000 m
Few clouds at a height of 3200 ft

Change units

Forecast

The report was made 3 hours and 52 minutes ago, at 23:00 UTC
Forecast valid from 24 at 00 UTC to 25 at 06 UTC
Wind 4 kt from the North/Northeast
Visibility 10 km or more
Scattered clouds at a height of 2500 ft
Probability 30% :
Temporary
from 24 at 02 UTC to 24 at 05 UTC
Visibility: 2500 m
mist
The information on this site is subject to a disclaimer
Weather : Europe Africa North America South America Asia Australia-Oceania Others
Satellite images 10-day forecastsClimateMarine weather Cyclones Lightning AirportsFAQ Languages Contact Newsletter About